sensor_id;sensor_type;location;lat;lon;timestamp;P1;durP1;ratioP1;P2;durP2;ratioP2
84640;SDS011;74871;51.928;15.506;2024-01-06T00:00:09;8.18;;;5.28;;
84640;SDS011;74871;51.928;15.506;2024-01-06T00:02:37;8.05;;;5.03;;
84640;SDS011;74871;51.928;15.506;2024-01-06T00:05:04;6.07;;;4.72;;
84640;SDS011;74871;51.928;15.506;2024-01-06T00:07:32;7.00;;;4.80;;
84640;SDS011;74871;51.928;15.506;2024-01-06T00:09:59;6.93;;;4.90;;
84640;SDS011;74871;51.928;15.506;2024-01-06T00:12:26;7.85;;;4.50;;
84640;SDS011;74871;51.928;15.506;2024-01-06T00:14:53;7.90;;;4.70;;
84640;SDS011;74871;51.928;15.506;2024-01-06T00:17:19;7.22;;;4.68;;
84640;SDS011;74871;51.928;15.506;2024-01-06T00:19:46;9.10;;;5.30;;
84640;SDS011;74871;51.928;15.506;2024-01-06T00:22:18;6.82;;;4.65;;
84640;SDS011;74871;51.928;15.506;2024-01-06T00:24:46;7.68;;;5.40;;
84640;SDS011;74871;51.928;15.506;2024-01-06T00:27:13;8.30;;;4.80;;
84640;SDS011;74871;51.928;15.506;2024-01-06T00:29:40;7.57;;;4.90;;
84640;SDS011;74871;51.928;15.506;2024-01-06T00:32:07;8.07;;;5.00;;
84640;SDS011;74871;51.928;15.506;2024-01-06T00:34:34;8.73;;;5.40;;
84640;SDS011;74871;51.928;15.506;2024-01-06T00:37:01;8.70;;;4.82;;
84640;SDS011;74871;51.928;15.506;2024-01-06T00:39:28;7.30;;;5.15;;
84640;SDS011;74871;51.928;15.506;2024-01-06T00:41:56;8.05;;;4.78;;
84640;SDS011;74871;51.928;15.506;2024-01-06T00:44:22;7.45;;;4.53;;
84640;SDS011;74871;51.928;15.506;2024-01-06T00:46:49;6.95;;;4.88;;
84640;SDS011;74871;51.928;15.506;2024-01-06T00:49:17;7.47;;;4.97;;
84640;SDS011;74871;51.928;15.506;2024-01-06T00:51:44;7.60;;;4.97;;
84640;SDS011;74871;51.928;15.506;2024-01-06T00:54:11;9.40;;;4.95;;
84640;SDS011;74871;51.928;15.506;2024-01-06T00:56:38;7.28;;;5.07;;
84640;SDS011;74871;51.928;15.506;2024-01-06T00:59:05;8.77;;;5.00;;
84640;SDS011;74871;51.928;15.506;2024-01-06T01:01:32;9.50;;;5.22;;
84640;SDS011;74871;51.928;15.506;2024-01-06T01:03:59;7.30;;;5.03;;
84640;SDS011;74871;51.928;15.506;2024-01-06T01:06:26;8.18;;;5.10;;
84640;SDS011;74871;51.928;15.506;2024-01-06T01:08:53;7.60;;;4.97;;
84640;SDS011;74871;51.928;15.506;2024-01-06T01:11:20;7.93;;;5.13;;
84640;SDS011;74871;51.928;15.506;2024-01-06T01:13:47;7.55;;;4.72;;
84640;SDS011;74871;51.928;15.506;2024-01-06T01:16:14;7.35;;;4.78;;
84640;SDS011;74871;51.928;15.506;2024-01-06T01:18:41;8.15;;;5.18;;
84640;SDS011;74871;51.928;15.506;2024-01-06T01:21:08;8.05;;;5.13;;
84640;SDS011;74871;51.928;15.506;2024-01-06T01:23:35;7.13;;;4.72;;
84640;SDS011;74871;51.928;15.506;2024-01-06T01:26:02;6.88;;;4.88;;
84640;SDS011;74871;51.928;15.506;2024-01-06T01:28:29;8.15;;;4.90;;
84640;SDS011;74871;51.928;15.506;2024-01-06T01:30:57;8.15;;;5.22;;
84640;SDS011;74871;51.928;15.506;2024-01-06T01:33:24;7.72;;;5.03;;
84640;SDS011;74871;51.928;15.506;2024-01-06T01:35:53;8.32;;;4.47;;
84640;SDS011;74871;51.928;15.506;2024-01-06T01:38:19;7.05;;;5.03;;
84640;SDS011;74871;51.928;15.506;2024-01-06T01:40:46;7.80;;;4.70;;
84640;SDS011;74871;51.928;15.506;2024-01-06T01:43:17;8.30;;;5.05;;
84640;SDS011;74871;51.928;15.506;2024-01-06T01:45:48;7.75;;;5.32;;
84640;SDS011;74871;51.928;15.506;2024-01-06T01:48:18;7.32;;;4.65;;
84640;SDS011;74871;51.928;15.506;2024-01-06T01:50:47;7.72;;;4.80;;
84640;SDS011;74871;51.928;15.506;2024-01-06T01:53:14;8.38;;;4.68;;
84640;SDS011;74871;51.928;15.506;2024-01-06T01:55:41;7.78;;;5.07;;
84640;SDS011;74871;51.928;15.506;2024-01-06T01:58:09;8.30;;;5.05;;
84640;SDS011;74871;51.928;15.506;2024-01-06T02:00:37;8.18;;;4.78;;
84640;SDS011;74871;51.928;15.506;2024-01-06T02:03:04;6.93;;;5.13;;
84640;SDS011;74871;51.928;15.506;2024-01-06T02:05:32;7.72;;;5.00;;
84640;SDS011;74871;51.928;15.506;2024-01-06T02:07:59;7.38;;;4.65;;
84640;SDS011;74871;51.928;15.506;2024-01-06T02:10:26;8.50;;;4.97;;
84640;SDS011;74871;51.928;15.506;2024-01-06T02:12:53;8.02;;;4.47;;
84640;SDS011;74871;51.928;15.506;2024-01-06T02:15:20;8.05;;;4.90;;
84640;SDS011;74871;51.928;15.506;2024-01-06T02:17:47;8.15;;;4.93;;
84640;SDS011;74871;51.928;15.506;2024-01-06T02:20:15;7.55;;;4.63;;
84640;SDS011;74871;51.928;15.506;2024-01-06T02:22:46;9.50;;;4.93;;
84640;SDS011;74871;51.928;15.506;2024-01-06T02:25:13;7.75;;;5.03;;
84640;SDS011;74871;51.928;15.506;2024-01-06T02:27:40;8.10;;;4.45;;
84640;SDS011;74871;51.928;15.506;2024-01-06T02:30:07;7.15;;;4.40;;
84640;SDS011;74871;51.928;15.506;2024-01-06T02:32:36;7.18;;;4.70;;
84640;SDS011;74871;51.928;15.506;2024-01-06T02:35:03;7.50;;;4.68;;
84640;SDS011;74871;51.928;15.506;2024-01-06T02:37:30;7.68;;;4.63;;
84640;SDS011;74871;51.928;15.506;2024-01-06T02:39:57;7.45;;;5.47;;
84640;SDS011;74871;51.928;15.506;2024-01-06T02:42:24;7.72;;;4.90;;
84640;SDS011;74871;51.928;15.506;2024-01-06T02:44:52;7.53;;;4.78;;
84640;SDS011;74871;51.928;15.506;2024-01-06T02:47:19;7.22;;;4.75;;
84640;SDS011;74871;51.928;15.506;2024-01-06T02:49:46;9.85;;;4.78;;
84640;SDS011;74871;51.928;15.506;2024-01-06T02:52:13;8.43;;;4.45;;
84640;SDS011;74871;51.928;15.506;2024-01-06T02:54:40;6.45;;;4.50;;
84640;SDS011;74871;51.928;15.506;2024-01-06T02:57:07;7.30;;;4.40;;
84640;SDS011;74871;51.928;15.506;2024-01-06T02:59:34;8.13;;;4.68;;
84640;SDS011;74871;51.928;15.506;2024-01-06T03:02:01;7.82;;;5.00;;
84640;SDS011;74871;51.928;15.506;2024-01-06T03:04:28;8.00;;;4.90;;
84640;SDS011;74871;51.928;15.506;2024-01-06T03:06:55;7.60;;;4.85;;
84640;SDS011;74871;51.928;15.506;2024-01-06T03:09:22;6.93;;;4.70;;
84640;SDS011;74871;51.928;15.506;2024-01-06T03:11:49;8.75;;;4.97;;
84640;SDS011;74871;51.928;15.506;2024-01-06T03:14:16;6.47;;;4.35;;
84640;SDS011;74871;51.928;15.506;2024-01-06T03:16:43;11.52;;;4.97;;
84640;SDS011;74871;51.928;15.506;2024-01-06T03:19:10;9.35;;;4.82;;
84640;SDS011;74871;51.928;15.506;2024-01-06T03:21:37;7.32;;;4.60;;
84640;SDS011;74871;51.928;15.506;2024-01-06T03:24:04;8.18;;;4.80;;
84640;SDS011;74871;51.928;15.506;2024-01-06T03:26:33;9.13;;;4.65;;
84640;SDS011;74871;51.928;15.506;2024-01-06T03:29:00;6.28;;;4.35;;
84640;SDS011;74871;51.928;15.506;2024-01-06T03:31:31;7.47;;;4.90;;
84640;SDS011;74871;51.928;15.506;2024-01-06T03:33:58;6.32;;;4.35;;
84640;SDS011;74871;51.928;15.506;2024-01-06T03:36:26;5.82;;;4.20;;
84640;SDS011;74871;51.928;15.506;2024-01-06T03:38:53;7.20;;;4.40;;
84640;SDS011;74871;51.928;15.506;2024-01-06T03:41:20;6.95;;;4.78;;
84640;SDS011;74871;51.928;15.506;2024-01-06T03:43:47;7.32;;;4.68;;
84640;SDS011;74871;51.928;15.506;2024-01-06T03:46:14;6.40;;;4.47;;
84640;SDS011;74871;51.928;15.506;2024-01-06T03:48:41;6.65;;;4.75;;
84640;SDS011;74871;51.928;15.506;2024-01-06T03:51:09;6.15;;;4.35;;
84640;SDS011;74871;51.928;15.506;2024-01-06T03:53:37;7.50;;;4.60;;
84640;SDS011;74871;51.928;15.506;2024-01-06T03:56:04;6.03;;;4.50;;
84640;SDS011;74871;51.928;15.506;2024-01-06T03:58:31;7.35;;;4.32;;
84640;SDS011;74871;51.928;15.506;2024-01-06T04:00:58;6.25;;;4.45;;
84640;SDS011;74871;51.928;15.506;2024-01-06T04:03:25;8.27;;;4.82;;
84640;SDS011;74871;51.928;15.506;2024-01-06T04:05:52;8.68;;;5.07;;
84640;SDS011;74871;51.928;15.506;2024-01-06T04:08:20;6.63;;;4.50;;
84640;SDS011;74871;51.928;15.506;2024-01-06T04:10:47;6.82;;;4.72;;
84640;SDS011;74871;51.928;15.506;2024-01-06T04:13:14;8.85;;;5.05;;
84640;SDS011;74871;51.928;15.506;2024-01-06T04:15:42;7.25;;;4.70;;
84640;SDS011;74871;51.928;15.506;2024-01-06T04:18:09;6.70;;;4.53;;
84640;SDS011;74871;51.928;15.506;2024-01-06T04:20:36;8.52;;;5.10;;
84640;SDS011;74871;51.928;15.506;2024-01-06T04:23:03;6.80;;;4.45;;
84640;SDS011;74871;51.928;15.506;2024-01-06T04:25:30;6.78;;;4.80;;
84640;SDS011;74871;51.928;15.506;2024-01-06T04:27:57;7.30;;;4.63;;
84640;SDS011;74871;51.928;15.506;2024-01-06T04:30:24;6.75;;;4.68;;
84640;SDS011;74871;51.928;15.506;2024-01-06T04:32:52;7.50;;;5.00;;
84640;SDS011;74871;51.928;15.506;2024-01-06T04:35:19;7.80;;;5.00;;
84640;SDS011;74871;51.928;15.506;2024-01-06T04:37:46;8.13;;;5.00;;
84640;SDS011;74871;51.928;15.506;2024-01-06T04:40:14;6.88;;;4.70;;
84640;SDS011;74871;51.928;15.506;2024-01-06T04:42:41;6.50;;;4.60;;
84640;SDS011;74871;51.928;15.506;2024-01-06T04:45:08;8.00;;;4.68;;
84640;SDS011;74871;51.928;15.506;2024-01-06T04:47:35;6.25;;;4.40;;
84640;SDS011;74871;51.928;15.506;2024-01-06T04:50:02;6.35;;;4.40;;
84640;SDS011;74871;51.928;15.506;2024-01-06T04:52:30;7.28;;;5.07;;
84640;SDS011;74871;51.928;15.506;2024-01-06T04:54:57;7.85;;;4.65;;
84640;SDS011;74871;51.928;15.506;2024-01-06T04:57:24;6.30;;;4.53;;
84640;SDS011;74871;51.928;15.506;2024-01-06T04:59:51;6.20;;;4.38;;
84640;SDS011;74871;51.928;15.506;2024-01-06T05:02:17;7.40;;;4.88;;
84640;SDS011;74871;51.928;15.506;2024-01-06T05:04:44;7.95;;;4.90;;
84640;SDS011;74871;51.928;15.506;2024-01-06T05:07:11;6.35;;;4.22;;
84640;SDS011;74871;51.928;15.506;2024-01-06T05:09:38;7.65;;;5.00;;
84640;SDS011;74871;51.928;15.506;2024-01-06T05:12:05;6.88;;;4.68;;
84640;SDS011;74871;51.928;15.506;2024-01-06T05:14:33;8.90;;;5.10;;
84640;SDS011;74871;51.928;15.506;2024-01-06T05:17:00;6.65;;;4.80;;
84640;SDS011;74871;51.928;15.506;2024-01-06T05:19:27;6.45;;;4.70;;
84640;SDS011;74871;51.928;15.506;2024-01-06T05:21:54;6.95;;;4.63;;
84640;SDS011;74871;51.928;15.506;2024-01-06T05:24:22;6.82;;;4.80;;
84640;SDS011;74871;51.928;15.506;2024-01-06T05:26:49;6.03;;;4.50;;
84640;SDS011;74871;51.928;15.506;2024-01-06T05:29:16;7.32;;;4.90;;
84640;SDS011;74871;51.928;15.506;2024-01-06T05:31:43;6.47;;;4.60;;
84640;SDS011;74871;51.928;15.506;2024-01-06T05:34:10;5.70;;;4.32;;
84640;SDS011;74871;51.928;15.506;2024-01-06T05:36:37;8.00;;;5.15;;
84640;SDS011;74871;51.928;15.506;2024-01-06T05:39:04;8.18;;;4.50;;
84640;SDS011;74871;51.928;15.506;2024-01-06T05:41:36;6.70;;;4.50;;
84640;SDS011;74871;51.928;15.506;2024-01-06T05:44:04;8.63;;;5.18;;
84640;SDS011;74871;51.928;15.506;2024-01-06T05:46:31;6.78;;;4.55;;
84640;SDS011;74871;51.928;15.506;2024-01-06T05:48:58;6.95;;;4.97;;
84640;SDS011;74871;51.928;15.506;2024-01-06T05:51:26;7.85;;;5.07;;
84640;SDS011;74871;51.928;15.506;2024-01-06T05:53:53;8.50;;;4.60;;
84640;SDS011;74871;51.928;15.506;2024-01-06T05:56:24;6.43;;;4.60;;
84640;SDS011;74871;51.928;15.506;2024-01-06T05:58:52;6.75;;;4.80;;
84640;SDS011;74871;51.928;15.506;2024-01-06T06:01:20;6.95;;;4.70;;
84640;SDS011;74871;51.928;15.506;2024-01-06T06:03:49;10.77;;;4.70;;
84640;SDS011;74871;51.928;15.506;2024-01-06T06:06:18;6.47;;;4.45;;
84640;SDS011;74871;51.928;15.506;2024-01-06T06:08:45;7.20;;;4.70;;
84640;SDS011;74871;51.928;15.506;2024-01-06T06:11:12;7.30;;;4.60;;
84640;SDS011;74871;51.928;15.506;2024-01-06T06:13:42;5.95;;;4.40;;
84640;SDS011;74871;51.928;15.506;2024-01-06T06:16:09;7.00;;;4.55;;
84640;SDS011;74871;51.928;15.506;2024-01-06T06:18:39;7.18;;;4.25;;
84640;SDS011;74871;51.928;15.506;2024-01-06T06:21:07;7.35;;;5.05;;
84640;SDS011;74871;51.928;15.506;2024-01-06T06:23:34;6.28;;;4.57;;
84640;SDS011;74871;51.928;15.506;2024-01-06T06:26:05;6.93;;;4.68;;
84640;SDS011;74871;51.928;15.506;2024-01-06T06:28:32;7.03;;;4.53;;
84640;SDS011;74871;51.928;15.506;2024-01-06T06:30:59;6.75;;;4.88;;
84640;SDS011;74871;51.928;15.506;2024-01-06T06:33:28;7.93;;;4.95;;
84640;SDS011;74871;51.928;15.506;2024-01-06T06:35:55;7.97;;;4.65;;
84640;SDS011;74871;51.928;15.506;2024-01-06T06:38:22;7.93;;;4.75;;
84640;SDS011;74871;51.928;15.506;2024-01-06T06:40:49;6.40;;;4.85;;
84640;SDS011;74871;51.928;15.506;2024-01-06T06:43:16;7.32;;;5.15;;
84640;SDS011;74871;51.928;15.506;2024-01-06T06:45:45;6.50;;;4.80;;
84640;SDS011;74871;51.928;15.506;2024-01-06T06:48:13;9.05;;;4.95;;
84640;SDS011;74871;51.928;15.506;2024-01-06T06:50:40;9.30;;;4.75;;
84640;SDS011;74871;51.928;15.506;2024-01-06T06:53:08;7.38;;;4.55;;
84640;SDS011;74871;51.928;15.506;2024-01-06T06:55:35;7.68;;;5.05;;
84640;SDS011;74871;51.928;15.506;2024-01-06T06:58:04;14.43;;;5.05;;
84640;SDS011;74871;51.928;15.506;2024-01-06T07:00:32;6.78;;;4.68;;
84640;SDS011;74871;51.928;15.506;2024-01-06T07:02:59;9.00;;;5.22;;
84640;SDS011;74871;51.928;15.506;2024-01-06T07:05:27;7.28;;;4.97;;
84640;SDS011;74871;51.928;15.506;2024-01-06T07:07:54;6.00;;;4.63;;
84640;SDS011;74871;51.928;15.506;2024-01-06T07:10:22;6.20;;;4.75;;
84640;SDS011;74871;51.928;15.506;2024-01-06T07:12:49;7.18;;;4.63;;
84640;SDS011;74871;51.928;15.506;2024-01-06T07:15:16;7.07;;;4.80;;
84640;SDS011;74871;51.928;15.506;2024-01-06T07:17:43;6.82;;;4.70;;
84640;SDS011;74871;51.928;15.506;2024-01-06T07:20:11;6.90;;;4.93;;
84640;SDS011;74871;51.928;15.506;2024-01-06T07:22:38;9.10;;;4.88;;
84640;SDS011;74871;51.928;15.506;2024-01-06T07:25:05;8.52;;;4.88;;
84640;SDS011;74871;51.928;15.506;2024-01-06T07:27:34;7.25;;;5.20;;
84640;SDS011;74871;51.928;15.506;2024-01-06T07:30:01;7.50;;;4.78;;
84640;SDS011;74871;51.928;15.506;2024-01-06T07:32:28;6.95;;;4.80;;
84640;SDS011;74871;51.928;15.506;2024-01-06T07:34:55;6.82;;;4.80;;
84640;SDS011;74871;51.928;15.506;2024-01-06T07:37:22;6.78;;;4.47;;
84640;SDS011;74871;51.928;15.506;2024-01-06T07:39:49;6.93;;;4.57;;
84640;SDS011;74871;51.928;15.506;2024-01-06T07:42:16;9.38;;;5.13;;
84640;SDS011;74871;51.928;15.506;2024-01-06T07:44:43;6.47;;;4.63;;
84640;SDS011;74871;51.928;15.506;2024-01-06T07:47:11;6.82;;;4.88;;
84640;SDS011;74871;51.928;15.506;2024-01-06T07:49:37;7.70;;;4.65;;
84640;SDS011;74871;51.928;15.506;2024-01-06T07:52:05;7.80;;;4.72;;
84640;SDS011;74871;51.928;15.506;2024-01-06T07:54:32;6.28;;;4.65;;
84640;SDS011;74871;51.928;15.506;2024-01-06T07:56:59;7.18;;;5.07;;
84640;SDS011;74871;51.928;15.506;2024-01-06T07:59:26;7.28;;;4.63;;
84640;SDS011;74871;51.928;15.506;2024-01-06T08:01:53;7.53;;;5.05;;
84640;SDS011;74871;51.928;15.506;2024-01-06T08:04:20;6.25;;;4.97;;
84640;SDS011;74871;51.928;15.506;2024-01-06T08:06:47;6.63;;;4.75;;
84640;SDS011;74871;51.928;15.506;2024-01-06T08:09:14;6.85;;;4.93;;
84640;SDS011;74871;51.928;15.506;2024-01-06T08:11:41;7.68;;;5.15;;
84640;SDS011;74871;51.928;15.506;2024-01-06T08:14:12;6.03;;;4.60;;
84640;SDS011;74871;51.928;15.506;2024-01-06T08:16:39;6.75;;;4.20;;
84640;SDS011;74871;51.928;15.506;2024-01-06T08:19:06;7.20;;;4.88;;
84640;SDS011;74871;51.928;15.506;2024-01-06T08:21:33;12.35;;;4.57;;
84640;SDS011;74871;51.928;15.506;2024-01-06T08:24:01;27.20;;;5.40;;
84640;SDS011;74871;51.928;15.506;2024-01-06T08:26:28;7.72;;;4.70;;
84640;SDS011;74871;51.928;15.506;2024-01-06T08:28:55;12.35;;;4.40;;
84640;SDS011;74871;51.928;15.506;2024-01-06T08:31:22;10.90;;;4.85;;
84640;SDS011;74871;51.928;15.506;2024-01-06T08:33:50;11.48;;;5.05;;
84640;SDS011;74871;51.928;15.506;2024-01-06T08:36:17;14.77;;;4.85;;
84640;SDS011;74871;51.928;15.506;2024-01-06T08:38:44;30.77;;;5.45;;
84640;SDS011;74871;51.928;15.506;2024-01-06T08:41:11;11.85;;;4.90;;
84640;SDS011;74871;51.928;15.506;2024-01-06T08:43:38;11.93;;;5.90;;
84640;SDS011;74871;51.928;15.506;2024-01-06T08:46:05;20.27;;;7.28;;
84640;SDS011;74871;51.928;15.506;2024-01-06T08:48:32;12.27;;;8.43;;
84640;SDS011;74871;51.928;15.506;2024-01-06T08:51:01;9.30;;;6.47;;
84640;SDS011;74871;51.928;15.506;2024-01-06T08:53:28;12.93;;;6.63;;
84640;SDS011;74871;51.928;15.506;2024-01-06T08:55:55;18.92;;;7.18;;
84640;SDS011;74871;51.928;15.506;2024-01-06T08:58:22;13.25;;;6.28;;
84640;SDS011;74871;51.928;15.506;2024-01-06T09:00:50;8.95;;;6.32;;
84640;SDS011;74871;51.928;15.506;2024-01-06T09:03:17;12.65;;;6.60;;
84640;SDS011;74871;51.928;15.506;2024-01-06T09:05:44;10.50;;;6.13;;
84640;SDS011;74871;51.928;15.506;2024-01-06T09:08:12;10.82;;;6.00;;
84640;SDS011;74871;51.928;15.506;2024-01-06T09:10:39;9.73;;;6.20;;
84640;SDS011;74871;51.928;15.506;2024-01-06T09:13:06;10.38;;;6.40;;
84640;SDS011;74871;51.928;15.506;2024-01-06T09:15:32;13.90;;;7.32;;
84640;SDS011;74871;51.928;15.506;2024-01-06T09:18:00;10.68;;;7.05;;
84640;SDS011;74871;51.928;15.506;2024-01-06T09:20:28;9.10;;;6.35;;
84640;SDS011;74871;51.928;15.506;2024-01-06T09:22:55;10.70;;;6.82;;
84640;SDS011;74871;51.928;15.506;2024-01-06T09:25:22;13.48;;;6.60;;
84640;SDS011;74871;51.928;15.506;2024-01-06T09:27:51;14.80;;;6.45;;
84640;SDS011;74871;51.928;15.506;2024-01-06T09:30:20;11.43;;;6.63;;
84640;SDS011;74871;51.928;15.506;2024-01-06T09:32:47;9.02;;;6.60;;
84640;SDS011;74871;51.928;15.506;2024-01-06T09:35:14;13.07;;;6.60;;
84640;SDS011;74871;51.928;15.506;2024-01-06T09:37:41;8.60;;;6.15;;
84640;SDS011;74871;51.928;15.506;2024-01-06T09:40:10;10.40;;;6.32;;
84640;SDS011;74871;51.928;15.506;2024-01-06T09:42:39;9.88;;;6.07;;
84640;SDS011;74871;51.928;15.506;2024-01-06T09:45:07;10.07;;;6.13;;
84640;SDS011;74871;51.928;15.506;2024-01-06T09:47:34;12.05;;;6.28;;
84640;SDS011;74871;51.928;15.506;2024-01-06T09:50:02;10.60;;;6.60;;
84640;SDS011;74871;51.928;15.506;2024-01-06T09:52:32;13.85;;;6.32;;
84640;SDS011;74871;51.928;15.506;2024-01-06T09:54:59;10.25;;;6.15;;
84640;SDS011;74871;51.928;15.506;2024-01-06T09:57:26;8.32;;;6.35;;
84640;SDS011;74871;51.928;15.506;2024-01-06T09:59:54;11.80;;;6.38;;
84640;SDS011;74871;51.928;15.506;2024-01-06T10:02:22;9.50;;;6.25;;
84640;SDS011;74871;51.928;15.506;2024-01-06T10:04:51;16.02;;;6.18;;
84640;SDS011;74871;51.928;15.506;2024-01-06T10:07:18;11.40;;;6.95;;
84640;SDS011;74871;51.928;15.506;2024-01-06T10:09:45;10.77;;;6.50;;
84640;SDS011;74871;51.928;15.506;2024-01-06T10:12:12;10.68;;;6.00;;
84640;SDS011;74871;51.928;15.506;2024-01-06T10:14:39;8.80;;;6.10;;
84640;SDS011;74871;51.928;15.506;2024-01-06T10:17:06;10.70;;;7.18;;
84640;SDS011;74871;51.928;15.506;2024-01-06T10:19:36;9.95;;;6.65;;
84640;SDS011;74871;51.928;15.506;2024-01-06T10:22:05;11.40;;;6.55;;
84640;SDS011;74871;51.928;15.506;2024-01-06T10:24:36;10.60;;;6.47;;
84640;SDS011;74871;51.928;15.506;2024-01-06T10:27:04;11.70;;;6.20;;
84640;SDS011;74871;51.928;15.506;2024-01-06T10:29:31;11.60;;;6.40;;
84640;SDS011;74871;51.928;15.506;2024-01-06T10:31:58;10.95;;;5.90;;
84640;SDS011;74871;51.928;15.506;2024-01-06T10:34:26;8.65;;;5.88;;
84640;SDS011;74871;51.928;15.506;2024-01-06T10:36:53;9.65;;;6.00;;
84640;SDS011;74871;51.928;15.506;2024-01-06T10:39:20;9.60;;;5.82;;
84640;SDS011;74871;51.928;15.506;2024-01-06T10:41:49;9.93;;;5.95;;
84640;SDS011;74871;51.928;15.506;2024-01-06T10:44:16;9.20;;;5.40;;
84640;SDS011;74871;51.928;15.506;2024-01-06T10:46:44;7.20;;;5.15;;
84640;SDS011;74871;51.928;15.506;2024-01-06T10:49:11;7.90;;;5.05;;
84640;SDS011;74871;51.928;15.506;2024-01-06T10:51:39;8.05;;;5.60;;
84640;SDS011;74871;51.928;15.506;2024-01-06T10:54:07;7.53;;;5.18;;
84640;SDS011;74871;51.928;15.506;2024-01-06T10:56:38;8.07;;;5.55;;
84640;SDS011;74871;51.928;15.506;2024-01-06T10:59:05;7.53;;;5.20;;
84640;SDS011;74871;51.928;15.506;2024-01-06T11:01:34;7.20;;;5.07;;
84640;SDS011;74871;51.928;15.506;2024-01-06T11:04:02;9.32;;;5.07;;
84640;SDS011;74871;51.928;15.506;2024-01-06T11:06:33;7.10;;;5.15;;
84640;SDS011;74871;51.928;15.506;2024-01-06T11:11:43;8.23;;;5.20;;
84640;SDS011;74871;51.928;15.506;2024-01-06T11:14:17;7.35;;;5.05;;
84640;SDS011;74871;51.928;15.506;2024-01-06T11:16:44;7.25;;;5.20;;
84640;SDS011;74871;51.928;15.506;2024-01-06T11:19:53;7.75;;;5.25;;
84640;SDS011;74871;51.928;15.506;2024-01-06T11:25:04;7.18;;;5.05;;
84640;SDS011;74871;51.928;15.506;2024-01-06T11:27:35;6.53;;;4.25;;
84640;SDS011;74871;51.928;15.506;2024-01-06T11:30:03;9.88;;;4.68;;
84640;SDS011;74871;51.928;15.506;2024-01-06T11:32:34;7.75;;;4.85;;
84640;SDS011;74871;51.928;15.506;2024-01-06T11:35:06;7.07;;;5.03;;
84640;SDS011;74871;51.928;15.506;2024-01-06T11:45:35;7.10;;;4.72;;
84640;SDS011;74871;51.928;15.506;2024-01-06T11:48:04;6.50;;;4.43;;
84640;SDS011;74871;51.928;15.506;2024-01-06T11:50:33;6.38;;;4.45;;
84640;SDS011;74871;51.928;15.506;2024-01-06T11:53:05;8.95;;;5.00;;
84640;SDS011;74871;51.928;15.506;2024-01-06T11:55:32;6.85;;;4.93;;
84640;SDS011;74871;51.928;15.506;2024-01-06T11:58:01;6.60;;;4.50;;
84640;SDS011;74871;51.928;15.506;2024-01-06T12:00:33;6.05;;;4.15;;
84640;SDS011;74871;51.928;15.506;2024-01-06T12:03:03;5.55;;;4.22;;
84640;SDS011;74871;51.928;15.506;2024-01-06T12:05:30;6.18;;;4.40;;
84640;SDS011;74871;51.928;15.506;2024-01-06T12:08:01;6.88;;;4.25;;
84640;SDS011;74871;51.928;15.506;2024-01-06T12:10:31;5.30;;;3.90;;
84640;SDS011;74871;51.928;15.506;2024-01-06T12:15:30;4.68;;;3.80;;
84640;SDS011;74871;51.928;15.506;2024-01-06T12:17:59;11.75;;;4.20;;
84640;SDS011;74871;51.928;15.506;2024-01-06T12:20:29;5.80;;;3.88;;
84640;SDS011;74871;51.928;15.506;2024-01-06T12:22:56;6.20;;;4.05;;
84640;SDS011;74871;51.928;15.506;2024-01-06T12:25:23;4.97;;;3.67;;
84640;SDS011;74871;51.928;15.506;2024-01-06T12:27:52;5.35;;;3.72;;
84640;SDS011;74871;51.928;15.506;2024-01-06T12:30:21;7.07;;;4.10;;
84640;SDS011;74871;51.928;15.506;2024-01-06T12:32:49;6.07;;;4.00;;
84640;SDS011;74871;51.928;15.506;2024-01-06T12:35:19;5.03;;;3.75;;
84640;SDS011;74871;51.928;15.506;2024-01-06T12:37:47;5.93;;;3.90;;
84640;SDS011;74871;51.928;15.506;2024-01-06T12:40:14;7.40;;;3.95;;
84640;SDS011;74871;51.928;15.506;2024-01-06T12:42:44;6.25;;;3.80;;
84640;SDS011;74871;51.928;15.506;2024-01-06T12:45:12;6.07;;;3.72;;
84640;SDS011;74871;51.928;15.506;2024-01-06T12:47:43;5.85;;;3.85;;
84640;SDS011;74871;51.928;15.506;2024-01-06T12:50:11;5.70;;;3.65;;
84640;SDS011;74871;51.928;15.506;2024-01-06T12:52:38;5.68;;;3.67;;
84640;SDS011;74871;51.928;15.506;2024-01-06T12:55:06;6.05;;;4.22;;
84640;SDS011;74871;51.928;15.506;2024-01-06T12:57:34;5.25;;;3.85;;
84640;SDS011;74871;51.928;15.506;2024-01-06T13:00:02;5.72;;;3.80;;
84640;SDS011;74871;51.928;15.506;2024-01-06T13:02:30;6.03;;;3.88;;
84640;SDS011;74871;51.928;15.506;2024-01-06T13:04:57;6.10;;;4.10;;
84640;SDS011;74871;51.928;15.506;2024-01-06T13:07:24;5.25;;;3.95;;
84640;SDS011;74871;51.928;15.506;2024-01-06T13:09:51;5.32;;;3.63;;
84640;SDS011;74871;51.928;15.506;2024-01-06T13:12:19;6.07;;;4.07;;
84640;SDS011;74871;51.928;15.506;2024-01-06T13:14:46;6.03;;;4.10;;
84640;SDS011;74871;51.928;15.506;2024-01-06T13:17:17;5.85;;;4.07;;
84640;SDS011;74871;51.928;15.506;2024-01-06T13:19:44;6.45;;;4.30;;
84640;SDS011;74871;51.928;15.506;2024-01-06T13:22:11;9.73;;;6.10;;
84640;SDS011;74871;51.928;15.506;2024-01-06T13:24:39;6.10;;;4.30;;
84640;SDS011;74871;51.928;15.506;2024-01-06T13:27:09;8.55;;;5.35;;
84640;SDS011;74871;51.928;15.506;2024-01-06T13:29:36;8.60;;;5.43;;
84640;SDS011;74871;51.928;15.506;2024-01-06T13:32:05;7.78;;;4.88;;
84640;SDS011;74871;51.928;15.506;2024-01-06T13:34:32;8.38;;;5.32;;
84640;SDS011;74871;51.928;15.506;2024-01-06T13:36:59;7.63;;;4.88;;
84640;SDS011;74871;51.928;15.506;2024-01-06T13:39:26;9.00;;;4.97;;
84640;SDS011;74871;51.928;15.506;2024-01-06T13:41:53;7.85;;;4.95;;
84640;SDS011;74871;51.928;15.506;2024-01-06T13:44:20;7.03;;;4.72;;
84640;SDS011;74871;51.928;15.506;2024-01-06T13:46:49;7.25;;;4.47;;
84640;SDS011;74871;51.928;15.506;2024-01-06T13:49:17;7.47;;;4.47;;
84640;SDS011;74871;51.928;15.506;2024-01-06T13:51:45;6.63;;;3.90;;
84640;SDS011;74871;51.928;15.506;2024-01-06T13:54:13;10.30;;;4.30;;
84640;SDS011;74871;51.928;15.506;2024-01-06T13:56:44;6.18;;;4.32;;
84640;SDS011;74871;51.928;15.506;2024-01-06T13:59:10;7.30;;;3.97;;
84640;SDS011;74871;51.928;15.506;2024-01-06T14:01:38;5.50;;;4.03;;
84640;SDS011;74871;51.928;15.506;2024-01-06T14:04:05;5.72;;;4.10;;
84640;SDS011;74871;51.928;15.506;2024-01-06T14:06:32;8.13;;;4.38;;
84640;SDS011;74871;51.928;15.506;2024-01-06T14:09:00;5.63;;;3.80;;
84640;SDS011;74871;51.928;15.506;2024-01-06T14:11:27;6.95;;;4.30;;
84640;SDS011;74871;51.928;15.506;2024-01-06T14:13:57;6.53;;;4.10;;
84640;SDS011;74871;51.928;15.506;2024-01-06T14:16:24;5.65;;;4.18;;
84640;SDS011;74871;51.928;15.506;2024-01-06T14:18:51;5.32;;;3.80;;
84640;SDS011;74871;51.928;15.506;2024-01-06T14:21:19;5.88;;;3.95;;
84640;SDS011;74871;51.928;15.506;2024-01-06T14:23:46;6.65;;;3.72;;
84640;SDS011;74871;51.928;15.506;2024-01-06T14:26:18;7.38;;;3.92;;
84640;SDS011;74871;51.928;15.506;2024-01-06T14:28:48;5.65;;;4.00;;
84640;SDS011;74871;51.928;15.506;2024-01-06T14:31:15;6.97;;;3.50;;
84640;SDS011;74871;51.928;15.506;2024-01-06T14:33:43;6.00;;;3.75;;
84640;SDS011;74871;51.928;15.506;2024-01-06T14:36:11;5.85;;;3.65;;
84640;SDS011;74871;51.928;15.506;2024-01-06T14:38:38;6.35;;;3.70;;
84640;SDS011;74871;51.928;15.506;2024-01-06T14:41:05;5.95;;;4.38;;
84640;SDS011;74871;51.928;15.506;2024-01-06T14:43:32;6.57;;;4.28;;
84640;SDS011;74871;51.928;15.506;2024-01-06T14:45:59;7.90;;;3.97;;
84640;SDS011;74871;51.928;15.506;2024-01-06T14:48:26;9.75;;;3.97;;
84640;SDS011;74871;51.928;15.506;2024-01-06T14:50:54;8.00;;;3.63;;